Time;durP1;ratioP1;P1;durP2;ratioP2;P2;SDS_P1;SDS_P2;PMS_P1;PMS_P2;Temp;Humidity;BMP_temperature;BMP_pressure;BME280_temperature;BME280_humidity;BME280_pressure;Samples;Min_cycle;Max_cycle;Signal;HPM_P1;HPM_P2
2023/08/11 00:00:04;;;;;;;2.43;1.70;;;;;;;24.56;54.42;98006.28;5058578;28;20225;-43
2023/08/11 00:02:31;;;;;;;1.83;1.57;;;;;;;24.56;54.17;98006.28;5063787;28;20253;-47
2023/08/11 00:04:58;;;;;;;1.80;1.70;;;;;;;24.52;54.51;97997.66;5060375;28;20262;-48
2023/08/11 00:07:24;;;;;;;1.70;1.57;;;;;;;24.43;54.52;97987.16;5057501;28;20204;-43
2023/08/11 00:09:51;;;;;;;2.13;1.77;;;;;;;24.56;54.49;98007.16;5046573;28;20449;-43
2023/08/11 00:12:18;;;;;;;1.87;1.70;;;;;;;24.58;54.43;98014.91;5051489;28;20194;-43
2023/08/11 00:14:44;;;;;;;1.40;1.30;;;;;;;24.55;54.74;97997.72;5056972;28;20193;-44
2023/08/11 00:17:11;;;;;;;1.80;1.70;;;;;;;24.46;54.57;97984.66;5058995;28;20185;-39
2023/08/11 00:19:37;;;;;;;1.73;1.63;;;;;;;24.50;54.63;97993.28;5057382;28;20236;-42
2023/08/11 00:22:06;;;;;;;1.60;1.50;;;;;;;24.43;54.34;97976.88;5059828;28;20186;-44
2023/08/11 00:24:33;;;;;;;1.90;1.53;;;;;;;24.39;54.59;97966.47;5054582;28;20182;-37
2023/08/11 00:27:02;;;;;;;1.60;1.50;;;;;;;24.44;54.62;97981.16;5032779;28;20190;-56
2023/08/11 00:29:30;;;;;;;1.53;1.43;;;;;;;24.43;54.76;97971.72;5050339;28;20230;-48
2023/08/11 00:31:57;;;;;;;1.50;1.40;;;;;;;24.53;54.62;97990.78;5058327;28;20198;-44
2023/08/11 00:34:23;;;;;;;2.10;1.60;;;;;;;24.45;54.37;97985.47;5055848;28;20183;-36
2023/08/11 00:36:50;;;;;;;1.50;1.40;;;;;;;24.55;54.61;98005.44;5046021;28;20210;-45
2023/08/11 00:39:17;;;;;;;1.70;1.60;;;;;;;24.55;54.32;98012.28;5056311;28;20210;-35
2023/08/11 00:41:43;;;;;;;1.67;1.57;;;;;;;24.46;54.77;97997.50;5057533;28;20188;-47
2023/08/11 00:44:10;;;;;;;1.93;1.60;;;;;;;24.44;54.50;97988.00;5058846;28;20193;-43
2023/08/11 00:46:36;;;;;;;1.70;1.60;;;;;;;24.49;54.48;97995.00;5040566;28;20182;-42
2023/08/11 00:49:03;;;;;;;1.87;1.67;;;;;;;24.47;54.59;97993.22;5042815;28;20225;-44
2023/08/11 00:51:30;;;;;;;1.70;1.60;;;;;;;24.57;54.86;98016.59;5051519;22;20251;-28
2023/08/11 00:53:56;;;;;;;1.63;1.53;;;;;;;24.51;54.62;98005.31;5035845;28;20205;-27
2023/08/11 00:56:23;;;;;;;2.10;1.60;;;;;;;24.57;54.41;98008.03;5044134;28;20247;-27
2023/08/11 00:58:49;;;;;;;1.60;1.50;;;;;;;24.58;54.78;98012.34;5024454;28;20314;-27
2023/08/11 01:01:16;;;;;;;1.70;1.60;;;;;;;24.58;54.67;98012.34;5041048;28;20217;-29
2023/08/11 01:03:45;;;;;;;1.90;1.80;;;;;;;24.57;54.35;98011.47;5053237;28;20205;-27
2023/08/11 01:06:21;;;;;;;1.60;1.50;;;;;;;24.56;54.83;98003.72;5052839;28;20254;-27
2023/08/11 01:08:56;;;;;;;2.50;1.70;;;;;;;24.56;54.48;98012.31;5022696;28;20205;-27
2023/08/11 01:11:33;;;;;;;1.43;1.33;;;;;;;24.56;54.67;98008.84;5016233;28;20687;-28
2023/08/11 01:14:03;;;;;;;1.70;1.60;;;;;;;24.53;54.81;98001.94;5039175;28;20251;-28
2023/08/11 01:16:30;;;;;;;1.90;1.80;;;;;;;24.49;54.39;97996.69;5049494;28;20544;-27
2023/08/11 01:18:57;;;;;;;1.70;1.60;;;;;;;24.53;54.81;98008.78;5023246;28;20227;-35
2023/08/11 01:21:23;;;;;;;1.60;1.50;;;;;;;24.52;54.48;98019.91;5060595;28;20228;-31
2023/08/11 01:23:50;;;;;;;1.77;1.67;;;;;;;24.51;54.52;98018.16;5024169;28;20231;-27
2023/08/11 01:26:16;;;;;;;2.20;1.57;;;;;;;24.50;54.48;98025.00;5046040;28;20232;-27
2023/08/11 01:28:43;;;;;;;1.70;1.60;;;;;;;24.50;54.75;98013.84;5037095;28;20205;-29
2023/08/11 01:31:10;;;;;;;1.50;1.40;;;;;;;24.49;54.40;98012.09;5038513;28;20280;-28
2023/08/11 01:33:37;;;;;;;1.70;1.60;;;;;;;24.48;54.45;98013.81;5052891;28;20236;-30
2023/08/11 01:36:05;;;;;;;1.70;1.50;;;;;;;24.48;54.86;98016.38;5056740;28;20211;-27
2023/08/11 01:38:32;;;;;;;1.60;1.50;;;;;;;24.46;54.58;98005.22;5056314;28;20220;-28
2023/08/11 01:40:58;;;;;;;1.70;1.60;;;;;;;24.47;54.90;98011.19;5053890;28;20274;-31
2023/08/11 01:43:25;;;;;;;1.77;1.57;;;;;;;24.47;55.30;98013.75;5053005;28;20204;-27
2023/08/11 01:45:52;;;;;;;1.60;1.50;;;;;;;24.46;54.83;98012.03;5040917;28;20250;-30
2023/08/11 01:48:19;;;;;;;1.50;1.40;;;;;;;24.47;55.07;98019.78;5029629;28;20666;-27
2023/08/11 01:50:46;;;;;;;1.77;1.63;;;;;;;24.42;55.22;98003.38;5035279;28;20240;-28
2023/08/11 01:53:13;;;;;;;1.63;1.53;;;;;;;24.48;55.07;98013.81;5034861;28;20223;-28
2023/08/11 01:55:40;;;;;;;1.90;1.80;;;;;;;24.49;54.90;98015.56;5018578;28;20205;-27
2023/08/11 01:58:07;;;;;;;2.33;2.00;;;;;;;24.47;55.03;98014.63;5035080;28;20208;-27
2023/08/11 02:00:33;;;;;;;2.07;1.87;;;;;;;24.49;55.54;98015.56;5043376;28;20216;-27
2023/08/11 02:03:00;;;;;;;1.97;1.60;;;;;;;24.46;55.25;98010.34;5060470;28;20211;-31
2023/08/11 02:05:29;;;;;;;1.83;1.73;;;;;;;24.50;54.89;98009.59;5064916;28;20282;-27
2023/08/11 02:07:55;;;;;;;1.70;1.60;;;;;;;24.50;55.30;98012.16;5054299;28;20687;-29
2023/08/11 02:10:22;;;;;;;1.90;1.70;;;;;;;24.51;55.40;98015.59;5034563;28;20213;-27
2023/08/11 02:12:49;;;;;;;1.80;1.70;;;;;;;24.51;55.26;98013.88;5030733;28;20279;-27
2023/08/11 02:15:15;;;;;;;1.63;1.53;;;;;;;24.52;55.10;98010.50;5051009;28;20216;-27
2023/08/11 02:17:42;;;;;;;1.70;1.60;;;;;;;24.53;54.99;98026.75;5060909;28;20201;-27
2023/08/11 02:20:17;;;;;;;2.03;1.70;;;;;;;24.52;55.01;98014.75;5063043;28;20307;-28
2023/08/11 02:22:44;;;;;;;2.00;1.90;;;;;;;24.54;55.06;98015.69;5065206;28;20201;-28
2023/08/11 02:25:11;;;;;;;1.80;1.70;;;;;;;24.53;55.08;98016.47;5055358;28;20721;-27
2023/08/11 02:27:38;;;;;;;1.97;1.77;;;;;;;24.54;55.09;98024.22;5059055;28;20209;-28
2023/08/11 02:30:06;;;;;;;1.70;1.60;;;;;;;24.54;55.28;98015.69;5064303;28;20557;-27
2023/08/11 02:32:32;;;;;;;2.10;1.77;;;;;;;24.54;55.31;98021.66;5060708;28;20197;-27
2023/08/11 02:34:59;;;;;;;1.70;1.60;;;;;;;24.54;55.48;98018.25;5059049;28;20451;-27
2023/08/11 02:37:26;;;;;;;2.10;1.70;;;;;;;24.54;55.45;98019.09;5057334;28;20196;-28
2023/08/11 02:39:53;;;;;;;1.60;1.50;;;;;;;24.53;55.41;98017.38;5068831;28;20220;-27
2023/08/11 02:42:20;;;;;;;2.10;1.63;;;;;;;24.54;55.46;98013.09;5054305;28;20550;-27
2023/08/11 02:44:47;;;;;;;1.60;1.50;;;;;;;24.55;55.16;98019.97;5071156;28;20201;-27
2023/08/11 02:47:13;;;;;;;1.60;1.50;;;;;;;24.55;55.34;98014.84;5061578;28;20197;-27
2023/08/11 02:49:40;;;;;;;1.80;1.70;;;;;;;24.55;55.49;98009.69;5050908;28;20250;-34
2023/08/11 02:52:07;;;;;;;1.70;1.60;;;;;;;24.54;55.32;98015.69;5055974;28;20215;-28
2023/08/11 02:54:34;;;;;;;1.50;1.40;;;;;;;24.54;55.48;98002.81;5064779;28;20230;-27
2023/08/11 02:57:01;;;;;;;1.93;1.73;;;;;;;24.54;55.27;98011.38;5067720;28;20204;-28
2023/08/11 02:59:28;;;;;;;1.93;1.80;;;;;;;24.53;55.19;98009.66;5062141;28;20248;-27
2023/08/11 03:01:54;;;;;;;1.73;1.63;;;;;;;24.54;55.32;98005.41;5058821;28;20702;-37
2023/08/11 03:04:21;;;;;;;1.70;1.60;;;;;;;24.54;55.54;98013.97;5065796;28;20197;-28
2023/08/11 03:06:48;;;;;;;1.70;1.60;;;;;;;24.54;55.26;98013.09;5063417;28;20204;-27
2023/08/11 03:09:14;;;;;;;1.50;1.40;;;;;;;24.54;55.33;98010.53;5065500;28;20247;-27
2023/08/11 03:11:41;;;;;;;1.60;1.50;;;;;;;24.53;55.41;98011.34;5056502;28;20641;-29
2023/08/11 03:14:07;;;;;;;1.63;1.53;;;;;;;24.53;55.50;98012.22;5059756;28;20197;-29
2023/08/11 03:16:34;;;;;;;1.60;1.50;;;;;;;24.53;55.82;98011.34;5055310;28;20254;-27
2023/08/11 03:19:01;;;;;;;1.70;1.60;;;;;;;24.53;55.36;98013.91;5055201;28;20221;-27
2023/08/11 03:21:27;;;;;;;1.73;1.63;;;;;;;24.53;55.67;98021.63;5057772;28;20223;-40
2023/08/11 03:23:54;;;;;;;1.60;1.50;;;;;;;24.53;55.78;98012.22;5064371;28;20253;-27
2023/08/11 03:26:20;;;;;;;1.73;1.63;;;;;;;24.53;55.47;98022.50;5061826;28;20200;-27
2023/08/11 03:28:47;;;;;;;1.53;1.43;;;;;;;24.53;55.38;98022.50;5063179;28;20228;-27
2023/08/11 03:31:13;;;;;;;1.83;1.73;;;;;;;24.51;55.48;98019.00;5067767;28;20640;-27
2023/08/11 03:33:40;;;;;;;1.73;1.63;;;;;;;24.51;55.61;98015.59;5061160;28;20582;-30
2023/08/11 03:36:07;;;;;;;1.80;1.70;;;;;;;24.53;55.36;98019.94;5049690;28;20262;-28
2023/08/11 03:38:33;;;;;;;1.80;1.70;;;;;;;24.53;55.50;98026.75;5042944;28;20656;-27
2023/08/11 03:41:00;;;;;;;2.37;1.57;;;;;;;24.52;55.72;98020.78;5059353;28;20219;-27
2023/08/11 03:43:26;;;;;;;1.80;1.70;;;;;;;24.51;55.46;98024.16;5066295;28;20200;-30
2023/08/11 03:45:53;;;;;;;1.70;1.60;;;;;;;24.52;55.49;98025.91;5064756;28;20204;-30
2023/08/11 03:48:20;;;;;;;1.60;1.50;;;;;;;24.52;55.59;98028.50;5067291;28;20200;-28
2023/08/11 03:50:47;;;;;;;2.03;1.80;;;;;;;24.52;55.61;98032.75;5060281;28;20255;-28
2023/08/11 03:53:13;;;;;;;1.63;1.53;;;;;;;24.50;55.65;98035.28;5051598;28;20603;-27
2023/08/11 03:55:42;;;;;;;1.70;1.60;;;;;;;24.50;55.90;98035.28;5066444;28;20196;-28
2023/08/11 03:58:09;;;;;;;1.67;1.57;;;;;;;24.51;55.55;98044.72;5054220;28;20699;-27
2023/08/11 04:00:36;;;;;;;1.90;1.80;;;;;;;24.50;55.97;98040.41;5054167;28;20228;-27
2023/08/11 04:03:03;;;;;;;1.70;1.60;;;;;;;24.50;55.62;98043.00;5060793;28;20204;-27
2023/08/11 04:05:30;;;;;;;1.60;1.50;;;;;;;24.50;55.62;98048.13;5060569;28;20204;-28
2023/08/11 04:07:57;;;;;;;1.87;1.77;;;;;;;24.50;56.14;98055.84;5058417;28;20205;-27
2023/08/11 04:10:24;;;;;;;1.50;1.40;;;;;;;24.49;55.59;98063.50;5060338;28;20220;-35
2023/08/11 04:12:51;;;;;;;1.67;1.57;;;;;;;24.50;55.91;98071.25;5057314;28;20204;-27
2023/08/11 04:15:17;;;;;;;1.27;1.20;;;;;;;24.50;55.85;98065.22;5058116;28;20246;-28
2023/08/11 04:17:44;;;;;;;1.70;1.60;;;;;;;24.49;55.92;98074.66;5060344;28;20203;-27
2023/08/11 04:20:13;;;;;;;1.60;1.50;;;;;;;24.50;56.02;98075.50;5066504;28;20228;-27
2023/08/11 04:22:40;;;;;;;1.70;1.60;;;;;;;24.49;55.67;98077.22;5060636;28;20693;-28
2023/08/11 04:25:11;;;;;;;1.70;1.60;;;;;;;24.17;55.54;98015.53;5063257;28;20212;-27
2023/08/11 04:27:39;;;;;;;1.40;1.30;;;;;;;24.49;55.66;98074.66;5069091;28;20286;-28
2023/08/11 04:30:07;;;;;;;1.30;1.30;;;;;;;24.50;55.98;98062.66;5063657;28;20220;-27
2023/08/11 04:32:34;;;;;;;1.70;1.60;;;;;;;24.50;56.01;98065.22;5065423;28;20197;-28
2023/08/11 04:35:01;;;;;;;1.53;1.43;;;;;;;24.50;55.90;98068.69;5063640;28;20204;-28
2023/08/11 04:37:27;;;;;;;1.80;1.70;;;;;;;24.50;55.93;98062.66;5064220;28;20204;-29
2023/08/11 04:39:54;;;;;;;1.80;1.70;;;;;;;24.50;55.75;98060.09;5056899;28;20209;-27
2023/08/11 04:42:20;;;;;;;1.70;1.60;;;;;;;24.50;55.70;98055.84;5063598;28;20283;-27
2023/08/11 04:44:47;;;;;;;1.70;1.60;;;;;;;24.51;55.85;98055.00;5070373;28;20663;-29
2023/08/11 04:47:14;;;;;;;1.70;1.60;;;;;;;24.50;55.73;98063.53;5062380;28;20200;-27
2023/08/11 04:49:42;;;;;;;1.47;1.37;;;;;;;24.50;55.72;98070.38;5055923;28;20674;-28
2023/08/11 04:52:09;;;;;;;1.60;1.50;;;;;;;24.49;55.53;98066.06;5062129;28;20208;-27
2023/08/11 04:54:36;;;;;;;1.60;1.50;;;;;;;24.49;56.03;98069.53;5061933;28;20274;-27
2023/08/11 04:57:02;;;;;;;1.80;1.70;;;;;;;24.49;55.76;98074.66;5056387;28;20201;-27
2023/08/11 04:59:29;;;;;;;1.80;1.70;;;;;;;24.49;55.68;98066.06;5065235;28;20641;-28
2023/08/11 05:01:55;;;;;;;1.90;1.80;;;;;;;24.48;55.62;98072.91;5072565;28;20226;-29
2023/08/11 05:04:22;;;;;;;1.50;1.40;;;;;;;24.46;55.97;98064.31;5053125;28;20601;-28
2023/08/11 05:06:49;;;;;;;1.60;1.50;;;;;;;24.49;55.95;98072.09;5058365;28;20204;-27
2023/08/11 05:09:15;;;;;;;2.60;1.53;;;;;;;24.50;55.98;98070.38;5065907;28;20197;-27
2023/08/11 05:11:42;;;;;;;1.80;1.70;;;;;;;24.49;56.01;98072.09;5048973;28;20224;-29
2023/08/11 05:14:08;;;;;;;1.43;1.33;;;;;;;24.49;56.05;98066.97;5066648;28;20335;-28
2023/08/11 05:16:35;;;;;;;1.70;1.60;;;;;;;24.48;55.56;98070.34;5057676;28;20214;-27
2023/08/11 05:19:02;;;;;;;1.63;1.53;;;;;;;24.49;56.25;98072.09;5070724;28;20196;-27
2023/08/11 05:21:29;;;;;;;1.73;1.63;;;;;;;24.49;56.04;98071.22;5063280;28;20282;-28
2023/08/11 05:23:55;;;;;;;1.80;1.50;;;;;;;24.49;55.94;98068.66;5072887;28;20196;-27
2023/08/11 05:26:22;;;;;;;1.80;1.70;;;;;;;24.50;56.11;98073.81;5061613;28;20225;-27
2023/08/11 05:28:48;;;;;;;1.57;1.47;;;;;;;24.50;55.74;98080.66;5049696;28;20200;-32
2023/08/11 05:31:15;;;;;;;1.90;1.80;;;;;;;24.49;56.24;98078.94;5051129;28;20695;-27
2023/08/11 05:33:41;;;;;;;1.77;1.67;;;;;;;24.49;55.80;98084.94;5055717;28;20670;-27
2023/08/11 05:36:08;;;;;;;1.47;1.37;;;;;;;24.50;56.03;98070.38;5065184;28;20197;-27
2023/08/11 05:38:35;;;;;;;1.90;1.80;;;;;;;24.49;55.88;98076.34;5054960;28;20550;-27
2023/08/11 05:41:01;;;;;;;1.60;1.50;;;;;;;24.50;55.76;98075.50;5066152;28;20698;-28
2023/08/11 05:43:28;;;;;;;1.80;1.70;;;;;;;24.49;55.94;98084.94;5062712;28;20200;-28
2023/08/11 05:45:55;;;;;;;1.60;1.50;;;;;;;24.50;55.73;98081.53;5052168;28;20201;-28
2023/08/11 05:48:21;;;;;;;1.60;1.50;;;;;;;24.49;56.13;98078.94;5064631;28;20211;-34
2023/08/11 05:50:50;;;;;;;1.60;1.50;;;;;;;24.50;56.14;98072.94;5062069;28;20267;-28
2023/08/11 05:53:16;;;;;;;1.60;1.50;;;;;;;24.49;55.97;98073.78;5060949;28;20293;-27
2023/08/11 05:55:43;;;;;;;1.70;1.60;;;;;;;24.48;55.80;98075.47;5066384;28;20196;-27
2023/08/11 05:58:09;;;;;;;1.80;1.70;;;;;;;24.49;56.26;98076.34;5062295;28;20200;-27
2023/08/11 06:00:36;;;;;;;1.50;1.40;;;;;;;24.48;55.79;98080.63;5059737;28;20501;-28
2023/08/11 06:03:03;;;;;;;1.57;1.47;;;;;;;24.48;56.31;98083.19;5062240;28;20638;-35
2023/08/11 06:05:30;;;;;;;1.57;1.47;;;;;;;24.47;56.31;98066.03;5057554;28;20193;-27
2023/08/11 06:07:56;;;;;;;1.70;1.60;;;;;;;24.48;55.78;98066.91;5069222;28;20204;-32
2023/08/11 06:10:32;;;;;;;1.60;1.50;;;;;;;24.48;55.96;98072.06;5063744;28;20251;-27
2023/08/11 06:12:58;;;;;;;1.83;1.70;;;;;;;24.48;56.16;98072.91;5069785;28;20209;-28
2023/08/11 06:15:25;;;;;;;1.63;1.53;;;;;;;24.47;56.20;98076.31;5049281;28;20204;-28
2023/08/11 06:17:51;;;;;;;1.77;1.60;;;;;;;24.47;56.20;98071.19;5062731;28;20199;-27
2023/08/11 06:20:18;;;;;;;1.60;1.50;;;;;;;24.48;55.91;98075.47;5060659;28;20252;-27
2023/08/11 06:23:00;;;;;;;1.60;1.50;;;;;;;24.46;56.05;98077.16;5057814;28;20571;-28
2023/08/11 06:25:27;;;;;;;1.80;1.70;;;;;;;24.48;55.69;98079.75;5063096;28;20680;-29
2023/08/11 06:27:54;;;;;;;1.80;1.70;;;;;;;24.48;55.83;98085.75;5058492;28;20200;-27
2023/08/11 06:30:20;;;;;;;1.70;1.60;;;;;;;24.48;55.93;98085.75;5069370;28;20267;-27
2023/08/11 06:32:47;;;;;;;1.70;1.60;;;;;;;24.48;56.19;98095.19;5052346;28;20259;-29
2023/08/11 06:35:13;;;;;;;1.80;1.70;;;;;;;24.48;56.26;98087.47;5065018;28;20196;-28
2023/08/11 06:37:40;;;;;;;1.67;1.57;;;;;;;24.48;56.04;98085.75;5065121;28;20261;-27
2023/08/11 06:40:08;;;;;;;1.50;1.40;;;;;;;24.48;55.99;98082.34;5064481;28;20310;-27
2023/08/11 06:42:34;;;;;;;1.73;1.63;;;;;;;24.49;55.87;98081.50;5068246;28;20204;-27
2023/08/11 06:45:02;;;;;;;1.70;1.60;;;;;;;24.48;55.92;98082.34;5064632;28;20197;-29
2023/08/11 06:47:29;;;;;;;1.70;1.60;;;;;;;24.47;56.18;98085.72;5068843;28;20200;-27
2023/08/11 06:49:55;;;;;;;1.70;1.60;;;;;;;24.47;55.76;98086.59;5063042;28;20231;-27
2023/08/11 06:52:22;;;;;;;1.60;1.50;;;;;;;24.48;55.85;98088.31;5081536;22;20224;-30
2023/08/11 06:54:49;;;;;;;1.50;1.40;;;;;;;24.48;55.75;98095.19;5071363;28;20253;-23
2023/08/11 06:57:17;;;;;;;1.53;1.43;;;;;;;24.48;55.99;98095.19;5063146;28;20208;-23
2023/08/11 06:59:44;;;;;;;1.60;1.50;;;;;;;24.48;55.76;98100.31;5071346;28;20236;-23
2023/08/11 07:02:11;;;;;;;1.80;1.70;;;;;;;24.48;55.88;98103.75;5042788;28;20271;-26
2023/08/11 07:04:37;;;;;;;1.70;1.60;;;;;;;24.47;55.86;98102.00;5046082;28;20212;-24
2023/08/11 07:07:04;;;;;;;1.67;1.57;;;;;;;24.48;55.78;98103.75;5032445;28;20233;-23
2023/08/11 07:09:31;;;;;;;1.60;1.50;;;;;;;24.48;55.81;98095.19;5042496;28;20201;-28
2023/08/11 07:11:58;;;;;;;1.80;1.70;;;;;;;24.49;56.07;98096.91;5034777;28;20569;-23
2023/08/11 07:14:24;;;;;;;2.57;1.60;;;;;;;24.49;56.11;98099.47;5031456;28;20244;-23
2023/08/11 07:16:51;;;;;;;1.67;1.57;;;;;;;24.50;56.23;98104.66;5032867;28;20627;-24
2023/08/11 07:19:18;;;;;;;1.60;1.50;;;;;;;24.50;55.69;98096.94;5046300;28;20671;-23
2023/08/11 07:21:45;;;;;;;1.40;1.30;;;;;;;24.51;55.89;98103.81;5042008;28;20325;-23
2023/08/11 07:24:11;;;;;;;1.50;1.40;;;;;;;24.51;56.07;98103.81;5041174;28;20280;-30
2023/08/11 07:26:38;;;;;;;1.60;1.50;;;;;;;24.51;55.81;98108.97;5050771;28;20278;-24
2023/08/11 07:29:04;;;;;;;1.63;1.53;;;;;;;24.51;55.97;98100.41;5035996;28;20233;-23
2023/08/11 07:31:31;;;;;;;1.50;1.40;;;;;;;24.53;55.70;98111.56;5050887;28;20220;-24
2023/08/11 07:33:57;;;;;;;1.50;1.40;;;;;;;24.53;55.99;98109.88;5033127;28;20730;-32
2023/08/11 07:36:24;;;;;;;1.50;1.40;;;;;;;24.53;55.44;98103.84;5048321;28;20233;-26
2023/08/11 07:38:51;;;;;;;1.50;1.40;;;;;;;24.54;55.69;98106.47;5032644;28;20212;-23
2023/08/11 07:41:21;;;;;;;1.60;1.50;;;;;;;24.54;55.88;98103.91;5043978;28;20406;-23
2023/08/11 07:43:48;;;;;;;2.20;1.80;;;;;;;24.55;55.85;98112.50;5048679;28;20204;-27
2023/08/11 07:46:14;;;;;;;1.60;1.50;;;;;;;24.54;55.59;98103.91;5038768;28;20198;-30
2023/08/11 07:48:41;;;;;;;1.60;1.50;;;;;;;23.66;55.43;97955.94;5049056;28;20655;-23
2023/08/11 07:51:08;;;;;;;1.50;1.40;;;;;;;24.55;55.83;98102.22;5033838;28;20257;-23
2023/08/11 07:53:36;;;;;;;1.57;1.47;;;;;;;24.56;55.62;98101.38;5049528;28;20200;-24
2023/08/11 07:56:04;;;;;;;1.70;1.60;;;;;;;24.55;55.66;98105.66;5040300;28;20228;-35
2023/08/11 07:58:31;;;;;;;1.50;1.40;;;;;;;24.55;55.87;98100.53;5040839;28;20206;-26
2023/08/11 08:00:58;;;;;;;1.63;1.53;;;;;;;24.56;55.76;98099.69;5053150;28;20258;-23
2023/08/11 08:03:25;;;;;;;1.77;1.67;;;;;;;24.56;55.34;98098.81;5050638;28;20656;-32
2023/08/11 08:05:51;;;;;;;1.57;1.47;;;;;;;24.56;55.49;98101.38;5040692;28;20205;-23
2023/08/11 08:08:18;;;;;;;2.17;1.60;;;;;;;24.56;55.30;98109.09;5044693;28;20627;-23
2023/08/11 08:10:44;;;;;;;1.53;1.43;;;;;;;24.48;55.42;98093.47;5052474;28;20629;-23
2023/08/11 08:13:11;;;;;;;1.60;1.50;;;;;;;24.56;55.76;98107.41;5047557;28;20205;-23
2023/08/11 08:15:38;;;;;;;1.73;1.53;;;;;;;24.57;55.61;98105.72;5049925;28;20228;-26
2023/08/11 08:18:04;;;;;;;1.70;1.60;;;;;;;24.56;55.72;98114.22;5054023;28;20589;-23
2023/08/11 08:20:31;;;;;;;1.67;1.57;;;;;;;24.57;55.33;98110.84;5048713;28;20308;-23
2023/08/11 08:22:58;;;;;;;2.30;1.50;;;;;;;24.55;55.59;98115.94;5034647;28;20229;-33
2023/08/11 08:25:24;;;;;;;1.50;1.40;;;;;;;24.56;55.74;98111.66;5044462;28;20201;-24
2023/08/11 08:27:51;;;;;;;1.77;1.67;;;;;;;24.56;55.49;98114.22;5038026;28;20219;-23
2023/08/11 08:30:32;;;;;;;1.70;1.60;;;;;;;24.55;55.45;98115.06;5050779;28;20291;-23
2023/08/11 08:32:59;;;;;;;2.53;1.80;;;;;;;24.54;55.66;98119.31;5048162;28;20201;-23
2023/08/11 08:35:26;;;;;;;1.60;1.50;;;;;;;24.55;55.44;98117.63;5041468;28;20206;-23
2023/08/11 08:37:52;;;;;;;1.60;1.50;;;;;;;24.55;55.47;98122.78;5050847;28;20630;-30
2023/08/11 08:40:19;;;;;;;1.40;1.30;;;;;;;24.54;55.24;98124.47;5028228;28;20221;-23
2023/08/11 08:42:45;;;;;;;1.50;1.40;;;;;;;24.54;55.56;98119.31;5052884;28;20684;-23
2023/08/11 08:45:12;;;;;;;1.60;1.50;;;;;;;24.43;55.31;98097.63;5049113;28;20256;-24
2023/08/11 08:47:38;;;;;;;1.70;1.60;;;;;;;24.56;55.48;98116.78;5028833;28;20201;-36
2023/08/11 08:50:05;;;;;;;2.07;1.40;;;;;;;24.55;55.66;98112.50;5031657;28;20201;-26
2023/08/11 08:52:32;;;;;;;1.60;1.50;;;;;;;24.54;55.24;98109.03;5023839;28;20268;-23
2023/08/11 08:55:00;;;;;;;1.60;1.50;;;;;;;24.51;55.45;98110.69;5046980;28;20205;-28
2023/08/11 08:57:26;;;;;;;1.63;1.53;;;;;;;24.54;55.49;98113.34;5022626;28;20212;-23
2023/08/11 08:59:53;;;;;;;1.40;1.30;;;;;;;24.54;55.88;98109.03;5041680;28;20255;-32
2023/08/11 09:02:20;;;;;;;1.40;1.30;;;;;;;24.54;55.39;98111.63;5050928;28;20278;-24
2023/08/11 09:04:47;;;;;;;1.40;1.30;;;;;;;24.50;55.61;98103.78;5038112;28;20207;-23
2023/08/11 09:07:15;;;;;;;1.57;1.47;;;;;;;24.54;55.74;98110.75;5013272;28;20194;-23
2023/08/11 09:09:45;;;;;;;1.80;1.70;;;;;;;24.53;55.58;98099.59;5056126;28;20213;-23
2023/08/11 09:12:12;;;;;;;1.50;1.40;;;;;;;24.54;55.59;98097.91;5040595;28;20209;-23
2023/08/11 09:14:39;;;;;;;1.70;1.60;;;;;;;24.54;55.73;98097.91;5055432;28;20200;-24
2023/08/11 09:17:05;;;;;;;1.53;1.43;;;;;;;24.54;55.40;98097.91;5037454;28;20209;-23
2023/08/11 09:19:32;;;;;;;1.60;1.50;;;;;;;24.50;55.40;98086.66;5042066;28;20201;-23
2023/08/11 09:21:58;;;;;;;1.27;1.27;;;;;;;24.54;55.80;98093.63;5015635;28;20230;-26
2023/08/11 09:24:25;;;;;;;1.50;1.40;;;;;;;24.54;55.30;98097.91;5043807;28;20219;-28
2023/08/11 09:26:52;;;;;;;1.50;1.40;;;;;;;24.55;55.61;98094.50;5009914;28;20201;-23
2023/08/11 09:29:19;;;;;;;1.80;1.70;;;;;;;24.55;55.31;98095.38;5004381;28;20252;-23
2023/08/11 09:31:52;;;;;;;1.60;1.50;;;;;;;24.54;55.70;98096.19;5032905;28;20213;-23
2023/08/11 09:34:19;;;;;;;1.50;1.40;;;;;;;24.54;55.42;98096.19;5047707;28;20597;-25
2023/08/11 09:36:47;;;;;;;1.70;1.60;;;;;;;24.55;55.57;98102.22;5046019;28;20279;-23
2023/08/11 09:39:14;;;;;;;1.60;1.50;;;;;;;24.54;55.54;98106.47;5022472;28;20205;-23
2023/08/11 09:41:47;;;;;;;2.33;1.50;;;;;;;24.54;55.19;98103.06;5054098;28;20236;-32
2023/08/11 09:44:15;;;;;;;1.43;1.33;;;;;;;24.53;55.47;98099.59;5041671;28;20202;-23
2023/08/11 09:46:42;;;;;;;1.60;1.50;;;;;;;24.55;55.52;98102.22;5049115;28;20231;-23
2023/08/11 09:49:09;;;;;;;1.43;1.33;;;;;;;24.54;55.26;98096.19;5048751;28;20224;-30
2023/08/11 09:51:36;;;;;;;1.73;1.63;;;;;;;24.54;55.11;98097.91;5040739;28;20582;-23
2023/08/11 09:54:06;;;;;;;1.63;1.53;;;;;;;24.54;55.13;98091.06;5049532;28;20200;-23
2023/08/11 09:56:43;;;;;;;1.50;1.40;;;;;;;24.55;55.57;98087.66;5041054;28;20205;-23
2023/08/11 09:59:11;;;;;;;1.53;1.43;;;;;;;24.54;55.59;98087.63;5041000;28;20197;-32
2023/08/11 10:01:37;;;;;;;1.53;1.43;;;;;;;24.55;55.54;98094.50;5042479;28;20229;-30
2023/08/11 10:04:10;;;;;;;1.60;1.50;;;;;;;24.54;55.43;98088.47;5042770;28;20646;-24
2023/08/11 10:06:38;;;;;;;1.50;1.40;;;;;;;24.54;55.54;98078.19;5037746;28;20217;-23
2023/08/11 10:09:05;;;;;;;1.70;1.60;;;;;;;24.55;55.39;98082.53;5016299;28;20224;-23
2023/08/11 10:11:33;;;;;;;1.37;1.30;;;;;;;24.55;55.46;98084.22;5021645;28;20256;-23
2023/08/11 10:14:01;;;;;;;1.60;1.50;;;;;;;24.55;55.30;98079.97;5012236;28;20813;-23
2023/08/11 10:16:29;;;;;;;1.50;1.40;;;;;;;24.56;55.20;98080.81;5043566;28;20233;-30
2023/08/11 10:18:57;;;;;;;1.60;1.50;;;;;;;24.51;55.50;98080.69;5040348;28;20205;-23
2023/08/11 10:21:24;;;;;;;1.53;1.43;;;;;;;24.45;55.66;98061.69;5024901;28;20275;-23
2023/08/11 10:23:52;;;;;;;1.40;1.30;;;;;;;24.52;55.16;98079.00;5014627;28;20589;-24
2023/08/11 10:26:19;;;;;;;1.70;1.60;;;;;;;24.41;55.51;98057.28;5017879;28;20228;-23
2023/08/11 10:28:45;;;;;;;1.60;1.50;;;;;;;24.57;55.48;98086.00;5009213;28;20229;-24
2023/08/11 10:31:12;;;;;;;1.50;1.40;;;;;;;24.56;55.15;98076.56;5023980;28;20240;-23
2023/08/11 10:33:38;;;;;;;1.60;1.50;;;;;;;24.57;55.04;98075.72;5042296;28;20639;-23
2023/08/11 10:36:05;;;;;;;1.80;1.70;;;;;;;24.57;55.42;98069.72;5045750;28;20252;-34
2023/08/11 10:38:32;;;;;;;1.50;1.40;;;;;;;24.57;55.33;98080.84;5047708;28;20206;-24
2023/08/11 10:41:08;;;;;;;1.60;1.50;;;;;;;24.58;55.56;98081.72;5044695;28;20224;-47
2023/08/11 10:43:43;;;;;;;1.60;1.50;;;;;;;24.58;55.26;98077.47;5032061;28;20255;-23
2023/08/11 10:46:30;;;;;;;1.40;1.30;;;;;;;24.58;55.22;98086.88;5033070;28;20212;-23
2023/08/11 10:48:59;;;;;;;1.50;1.40;;;;;;;24.57;55.56;98075.72;5037162;28;20691;-32
2023/08/11 10:51:38;;;;;;;1.50;1.40;;;;;;;24.57;55.05;98074.88;5041514;28;20573;-23
2023/08/11 10:54:09;;;;;;;1.60;1.50;;;;;;;24.57;55.16;98072.28;5035050;28;20231;-24
2023/08/11 10:56:40;;;;;;;1.60;1.50;;;;;;;24.55;55.28;98074.81;5049255;28;20206;-30
2023/08/11 10:59:11;;;;;;;1.50;1.40;;;;;;;24.55;55.01;98073.94;5049881;28;20205;-23
2023/08/11 11:01:39;;;;;;;1.50;1.40;;;;;;;24.41;55.30;98040.19;5031653;28;20221;-23
2023/08/11 11:04:06;;;;;;;1.70;1.60;;;;;;;24.53;55.24;98062.75;5039667;28;20198;-32
2023/08/11 11:06:33;;;;;;;1.60;1.50;;;;;;;24.52;55.07;98068.72;5037473;28;20201;-24
2023/08/11 11:09:01;;;;;;;1.60;1.50;;;;;;;24.50;55.20;98063.53;5056980;28;20212;-28
2023/08/11 11:11:28;;;;;;;1.50;1.40;;;;;;;24.46;55.54;98056.59;5039286;28;20628;-27
2023/08/11 11:13:54;;;;;;;1.40;1.30;;;;;;;24.51;55.57;98064.44;5037332;28;20660;-23
2023/08/11 11:16:21;;;;;;;1.40;1.30;;;;;;;24.51;55.20;98060.13;5032353;28;20233;-28
2023/08/11 11:18:48;;;;;;;1.50;1.40;;;;;;;24.51;55.36;98054.16;5033542;28;20656;-23
2023/08/11 11:21:14;;;;;;;1.50;1.40;;;;;;;24.50;55.22;98060.09;5038538;28;20249;-23
2023/08/11 11:23:48;;;;;;;1.53;1.40;;;;;;;24.51;55.14;98061.84;5031623;28;20293;-27
2023/08/11 11:26:16;;;;;;;1.40;1.30;;;;;;;24.51;55.43;98060.13;5033406;28;20197;-23
2023/08/11 11:28:42;;;;;;;1.50;1.40;;;;;;;24.51;55.34;98056.72;5051170;28;20610;-23
2023/08/11 11:31:09;;;;;;;1.50;1.40;;;;;;;24.51;55.16;98059.28;5033836;28;20643;-32
2023/08/11 11:33:36;;;;;;;1.50;1.40;;;;;;;24.46;55.20;98048.00;5035462;28;20634;-26